Time;durP1;ratioP1;P1;durP2;ratioP2;P2;SDS_P1;SDS_P2;PMS_P1;PMS_P2;Temp;Humidity;BMP_temperature;BMP_pressure;BME280_temperature;BME280_humidity;BME280_pressure;Samples;Min_cycle;Max_cycle;Signal;HPM_P1;HPM_P2
2024/01/07 00:02:15;;;;;;;68.43;20.98;;;;;;;;;;4998945;28;20494;-54
2024/01/07 00:04:42;;;;;;;71.93;21.85;;;;;;;;;;4996101;28;20050;-55
2024/01/07 00:07:08;;;;;;;74.38;23.88;;;;;;;;;;4997861;28;20046;-52
2024/01/07 00:09:34;;;;;;;75.75;22.20;;;;;;;;;;4996201;28;20042;-54
2024/01/07 00:12:00;;;;;;;67.20;21.02;;;;;;;;;;5001312;28;20041;-56
2024/01/07 00:14:26;;;;;;;62.58;19.27;;;;;;;;;;4999913;28;20422;-55
2024/01/07 00:16:52;;;;;;;65.65;20.13;;;;;;;;;;4999571;28;20062;-55
2024/01/07 00:19:18;;;;;;;61.28;20.92;;;;;;;;;;4991722;28;20046;-52
2024/01/07 00:21:44;;;;;;;61.88;19.02;;;;;;;;;;4997571;28;20040;-58
2024/01/07 00:24:11;;;;;;;58.15;20.02;;;;;;;;;;4996741;28;20042;-55
2024/01/07 00:26:37;;;;;;;56.90;19.92;;;;;;;;;;5007253;28;20702;-56
2024/01/07 00:29:03;;;;;;;56.03;19.95;;;;;;;;;;4993382;28;20399;-52
2024/01/07 00:31:29;;;;;;;56.40;19.67;;;;;;;;;;4995614;28;20053;-54
2024/01/07 00:33:55;;;;;;;62.10;21.30;;;;;;;;;;4995353;28;20038;-52
2024/01/07 00:36:21;;;;;;;55.05;18.75;;;;;;;;;;4995940;28;20414;-53
2024/01/07 00:38:48;;;;;;;57.05;20.23;;;;;;;;;;4997446;28;20038;-53
2024/01/07 00:41:14;;;;;;;58.80;19.70;;;;;;;;;;4997486;28;20054;-53
2024/01/07 00:43:41;;;;;;;55.65;20.65;;;;;;;;;;4995765;28;20065;-56
2024/01/07 00:46:07;;;;;;;58.15;20.65;;;;;;;;;;4993905;28;20061;-56
2024/01/07 00:48:33;;;;;;;63.15;22.10;;;;;;;;;;4994694;28;20042;-55
2024/01/07 00:50:59;;;;;;;53.92;19.00;;;;;;;;;;4999185;28;20130;-57
2024/01/07 00:53:25;;;;;;;58.53;19.98;;;;;;;;;;4997733;28;20037;-58
2024/01/07 00:55:51;;;;;;;61.13;19.80;;;;;;;;;;4990454;28;20502;-53
2024/01/07 00:58:17;;;;;;;53.95;19.05;;;;;;;;;;4996932;28;20053;-57
2024/01/07 01:00:43;;;;;;;61.78;20.10;;;;;;;;;;5001177;28;20037;-55
2024/01/07 01:03:09;;;;;;;64.38;21.02;;;;;;;;;;4992313;28;20057;-58
2024/01/07 01:05:36;;;;;;;57.13;20.73;;;;;;;;;;4998661;28;20079;-56
2024/01/07 01:08:02;;;;;;;62.95;20.40;;;;;;;;;;4996041;28;20050;-56
2024/01/07 01:10:28;;;;;;;53.13;20.58;;;;;;;;;;5001800;28;20041;-55
2024/01/07 01:12:54;;;;;;;55.33;18.70;;;;;;;;;;4997574;28;20026;-56
2024/01/07 01:15:20;;;;;;;60.53;20.83;;;;;;;;;;4998847;28;20445;-56
2024/01/07 01:17:47;;;;;;;55.90;19.05;;;;;;;;;;4999719;28;20505;-55
2024/01/07 01:20:13;;;;;;;56.67;19.67;;;;;;;;;;4991603;28;20426;-56
2024/01/07 01:22:39;;;;;;;56.35;19.15;;;;;;;;;;4995807;28;20050;-57
2024/01/07 01:25:06;;;;;;;63.33;20.05;;;;;;;;;;4993203;28;20050;-57
2024/01/07 01:27:32;;;;;;;58.58;19.50;;;;;;;;;;4997491;28;20393;-56
2024/01/07 01:29:58;;;;;;;58.42;20.25;;;;;;;;;;5002717;28;20046;-57
2024/01/07 01:32:24;;;;;;;57.63;20.13;;;;;;;;;;5002058;28;20034;-55
2024/01/07 01:34:51;;;;;;;69.00;19.83;;;;;;;;;;5010429;28;20057;-56
2024/01/07 01:37:17;;;;;;;58.60;19.88;;;;;;;;;;4996481;28;20046;-53
2024/01/07 01:39:43;;;;;;;57.38;19.20;;;;;;;;;;4995970;28;20414;-56
2024/01/07 01:42:09;;;;;;;63.25;21.50;;;;;;;;;;4996484;28;20158;-54
2024/01/07 01:44:35;;;;;;;63.42;20.15;;;;;;;;;;4998724;28;20040;-55
2024/01/07 01:47:01;;;;;;;61.95;20.40;;;;;;;;;;4998775;28;20421;-56
2024/01/07 01:49:28;;;;;;;64.13;20.02;;;;;;;;;;4999123;28;20437;-55
2024/01/07 01:51:54;;;;;;;74.65;23.50;;;;;;;;;;4996034;28;20038;-54
2024/01/07 01:54:21;;;;;;;63.72;20.58;;;;;;;;;;5000824;28;20534;-55
2024/01/07 01:56:48;;;;;;;61.88;19.83;;;;;;;;;;5000490;28;20057;-52
2024/01/07 01:59:15;;;;;;;65.80;20.95;;;;;;;;;;5003963;28;20046;-56
2024/01/07 02:01:41;;;;;;;66.65;20.13;;;;;;;;;;4997665;28;20038;-53
2024/01/07 02:04:08;;;;;;;71.28;22.42;;;;;;;;;;5001438;28;20126;-56
2024/01/07 02:06:35;;;;;;;64.95;19.17;;;;;;;;;;4997872;28;20418;-55
2024/01/07 02:09:02;;;;;;;70.20;20.10;;;;;;;;;;4992114;28;20042;-56
2024/01/07 02:11:28;;;;;;;72.53;21.45;;;;;;;;;;5028111;28;20094;-55
2024/01/07 02:13:54;;;;;;;67.22;20.33;;;;;;;;;;5005728;28;20049;-54
2024/01/07 02:16:20;;;;;;;71.55;22.63;;;;;;;;;;5007463;28;20050;-54
2024/01/07 02:18:46;;;;;;;73.57;20.98;;;;;;;;;;5000215;28;20042;-51
2024/01/07 02:21:15;;;;;;;73.10;21.73;;;;;;;;;;5001781;28;20049;-55
2024/01/07 02:23:41;;;;;;;71.50;21.98;;;;;;;;;;5002584;28;20441;-57
2024/01/07 02:26:07;;;;;;;72.95;22.73;;;;;;;;;;5003326;28;20038;-54
2024/01/07 02:28:34;;;;;;;67.88;20.30;;;;;;;;;;4995151;28;20395;-56
2024/01/07 02:31:00;;;;;;;73.53;21.35;;;;;;;;;;5010135;28;20049;-53
2024/01/07 02:33:26;;;;;;;74.32;22.63;;;;;;;;;;5004887;28;20049;-56
2024/01/07 02:35:52;;;;;;;68.93;20.77;;;;;;;;;;4998381;28;20065;-55
2024/01/07 02:38:18;;;;;;;69.15;20.92;;;;;;;;;;5000240;28;20039;-55
2024/01/07 02:40:44;;;;;;;79.00;20.63;;;;;;;;;;5000807;28;20041;-55
2024/01/07 02:43:11;;;;;;;64.10;20.33;;;;;;;;;;5000069;28;20053;-54
2024/01/07 02:45:37;;;;;;;68.75;20.38;;;;;;;;;;4999445;28;20061;-55
2024/01/07 02:48:03;;;;;;;66.97;19.33;;;;;;;;;;4998708;28;20038;-57
2024/01/07 02:50:31;;;;;;;69.70;19.70;;;;;;;;;;5005316;28;20045;-55
2024/01/07 02:52:57;;;;;;;70.43;21.08;;;;;;;;;;5002608;28;20426;-56
2024/01/07 02:55:23;;;;;;;67.93;21.45;;;;;;;;;;4998133;28;20046;-56
2024/01/07 02:57:49;;;;;;;70.85;22.23;;;;;;;;;;4998974;28;20061;-56
2024/01/07 03:00:16;;;;;;;68.40;20.67;;;;;;;;;;4996854;28;20050;-56
2024/01/07 03:02:42;;;;;;;74.13;22.58;;;;;;;;;;5003382;28;20052;-53
2024/01/07 03:05:08;;;;;;;69.78;20.88;;;;;;;;;;5000681;28;20061;-54
2024/01/07 03:07:34;;;;;;;64.55;20.05;;;;;;;;;;4999366;28;20046;-52
2024/01/07 03:10:00;;;;;;;67.40;21.52;;;;;;;;;;4998343;28;20060;-50
2024/01/07 03:12:26;;;;;;;72.30;21.65;;;;;;;;;;4999310;28;20513;-54
2024/01/07 03:14:52;;;;;;;76.13;22.70;;;;;;;;;;5000579;28;21775;-51
2024/01/07 03:17:18;;;;;;;69.28;20.50;;;;;;;;;;5000006;28;20403;-56
2024/01/07 03:19:44;;;;;;;67.35;20.65;;;;;;;;;;4998245;28;20038;-54
2024/01/07 03:22:11;;;;;;;64.05;21.55;;;;;;;;;;5004301;28;20045;-53
2024/01/07 03:24:37;;;;;;;70.40;19.88;;;;;;;;;;5005734;28;20045;-53
2024/01/07 03:27:03;;;;;;;70.45;20.85;;;;;;;;;;4995920;28;20418;-54
2024/01/07 03:29:29;;;;;;;69.28;21.30;;;;;;;;;;5000970;28;20034;-55
2024/01/07 03:31:55;;;;;;;64.30;20.63;;;;;;;;;;5002512;28;20033;-56
2024/01/07 03:34:21;;;;;;;79.40;20.23;;;;;;;;;;5011316;28;20041;-54
2024/01/07 03:36:47;;;;;;;71.53;20.80;;;;;;;;;;5005674;28;20035;-54
2024/01/07 03:39:13;;;;;;;71.30;21.38;;;;;;;;;;5002966;28;20421;-54
2024/01/07 03:41:39;;;;;;;66.60;19.08;;;;;;;;;;4998130;28;20046;-54
2024/01/07 03:44:06;;;;;;;72.13;20.70;;;;;;;;;;4996855;28;20050;-54
2024/01/07 03:46:32;;;;;;;66.43;20.35;;;;;;;;;;5001144;28;20501;-56
2024/01/07 03:48:58;;;;;;;69.88;22.15;;;;;;;;;;5001376;28;20045;-59
2024/01/07 03:51:24;;;;;;;72.40;21.17;;;;;;;;;;5000708;28;20052;-59
2024/01/07 03:53:50;;;;;;;60.17;19.13;;;;;;;;;;5004450;28;20497;-57
2024/01/07 03:56:16;;;;;;;70.88;21.83;;;;;;;;;;5003734;28;20045;-56
2024/01/07 03:58:42;;;;;;;66.20;20.63;;;;;;;;;;5002630;28;20393;-56
2024/01/07 04:01:08;;;;;;;67.68;20.33;;;;;;;;;;4999431;28;20038;-56
2024/01/07 04:03:34;;;;;;;71.88;20.10;;;;;;;;;;5005769;28;20029;-55
2024/01/07 04:06:00;;;;;;;72.95;19.92;;;;;;;;;;5001728;28;20053;-55
2024/01/07 04:08:27;;;;;;;67.35;18.88;;;;;;;;;;5005390;28;20485;-57
2024/01/07 04:10:53;;;;;;;77.50;20.70;;;;;;;;;;4998738;28;20042;-57
2024/01/07 04:13:19;;;;;;;69.90;20.50;;;;;;;;;;5010195;28;20362;-57
2024/01/07 04:15:45;;;;;;;70.15;20.27;;;;;;;;;;4993736;28;20034;-57
2024/01/07 04:18:11;;;;;;;59.97;18.15;;;;;;;;;;4999958;28;20053;-57
2024/01/07 04:20:37;;;;;;;59.15;18.58;;;;;;;;;;5002112;28;20500;-57
2024/01/07 04:23:03;;;;;;;66.00;19.25;;;;;;;;;;4999476;28;20049;-57
2024/01/07 04:25:29;;;;;;;63.20;19.60;;;;;;;;;;4997684;28;20040;-57
2024/01/07 04:27:56;;;;;;;62.10;20.05;;;;;;;;;;5001888;28;20049;-55
2024/01/07 04:30:22;;;;;;;66.03;20.20;;;;;;;;;;4998156;28;20037;-56
2024/01/07 04:32:48;;;;;;;68.50;22.35;;;;;;;;;;5000936;28;20077;-52
2024/01/07 04:35:14;;;;;;;61.85;20.58;;;;;;;;;;5003223;28;20038;-54
2024/01/07 04:37:40;;;;;;;58.05;19.50;;;;;;;;;;4997088;28;20041;-56
2024/01/07 04:40:07;;;;;;;71.10;20.50;;;;;;;;;;4996050;28;20126;-53
2024/01/07 04:42:34;;;;;;;63.22;19.20;;;;;;;;;;4997594;28;20041;-55
2024/01/07 04:45:00;;;;;;;64.38;19.58;;;;;;;;;;4995386;28;20049;-55
2024/01/07 04:47:28;;;;;;;64.90;19.75;;;;;;;;;;4995336;28;20539;-54
2024/01/07 04:49:54;;;;;;;58.28;19.63;;;;;;;;;;4993451;28;20042;-56
2024/01/07 04:52:22;;;;;;;59.13;19.98;;;;;;;;;;4994311;28;20450;-54
2024/01/07 04:54:48;;;;;;;60.45;19.23;;;;;;;;;;4996478;28;20040;-50
2024/01/07 04:57:14;;;;;;;62.72;18.92;;;;;;;;;;5003168;28;20033;-56
2024/01/07 04:59:40;;;;;;;57.75;19.70;;;;;;;;;;4998133;28;20067;-55
2024/01/07 05:02:09;;;;;;;58.47;18.40;;;;;;;;;;4997058;28;20053;-57
2024/01/07 05:04:36;;;;;;;61.17;19.38;;;;;;;;;;5002116;28;20045;-53
2024/01/07 05:07:03;;;;;;;73.38;19.20;;;;;;;;;;4998247;28;20038;-54
2024/01/07 05:09:29;;;;;;;54.13;17.88;;;;;;;;;;5004288;28;20417;-56
2024/01/07 05:11:55;;;;;;;50.92;17.23;;;;;;;;;;5005631;28;20076;-55
2024/01/07 05:14:22;;;;;;;50.53;17.30;;;;;;;;;;5001074;28;20038;-56
2024/01/07 05:16:48;;;;;;;53.33;17.95;;;;;;;;;;5000834;28;20058;-55
2024/01/07 05:19:15;;;;;;;47.17;17.42;;;;;;;;;;4996926;28;20045;-58
2024/01/07 05:21:41;;;;;;;52.47;18.15;;;;;;;;;;4999524;28;20707;-58
2024/01/07 05:24:07;;;;;;;47.20;16.90;;;;;;;;;;4998208;28;20042;-58
2024/01/07 05:26:42;;;;;;;48.20;17.55;;;;;;;;;;4996860;28;20046;-55
2024/01/07 05:29:08;;;;;;;51.15;18.52;;;;;;;;;;5002921;28;20510;-58
2024/01/07 05:31:34;;;;;;;48.90;18.00;;;;;;;;;;5009271;28;20026;-58
2024/01/07 05:34:01;;;;;;;50.55;19.17;;;;;;;;;;5003246;28;20370;-56
2024/01/07 05:36:27;;;;;;;52.80;17.90;;;;;;;;;;5004209;28;20034;-58
2024/01/07 05:38:53;;;;;;;47.33;17.05;;;;;;;;;;5001972;28;20050;-57
2024/01/07 05:41:19;;;;;;;48.28;17.98;;;;;;;;;;5001896;28;20042;-58
2024/01/07 05:43:45;;;;;;;47.38;17.55;;;;;;;;;;4998422;28;20042;-58
2024/01/07 05:46:12;;;;;;;42.30;16.23;;;;;;;;;;4995281;28;20453;-58
2024/01/07 05:48:44;;;;;;;48.17;16.75;;;;;;;;;;5001129;28;20042;-58
2024/01/07 05:51:11;;;;;;;48.42;17.58;;;;;;;;;;5002040;28;20381;-58
2024/01/07 05:53:37;;;;;;;44.28;17.48;;;;;;;;;;4999354;28;20030;-57
2024/01/07 05:56:03;;;;;;;46.10;18.20;;;;;;;;;;4998743;28;20038;-58
2024/01/07 05:58:30;;;;;;;47.60;16.70;;;;;;;;;;4998514;28;20045;-57
2024/01/07 06:00:56;;;;;;;51.30;18.23;;;;;;;;;;4996862;28;20045;-56
2024/01/07 06:03:22;;;;;;;52.10;19.27;;;;;;;;;;4998545;28;20062;-56
2024/01/07 06:05:48;;;;;;;54.13;18.95;;;;;;;;;;5005090;28;20060;-57
2024/01/07 06:08:14;;;;;;;46.92;16.80;;;;;;;;;;4993265;28;20065;-59
2024/01/07 06:10:41;;;;;;;47.35;16.02;;;;;;;;;;4994295;28;20034;-59
2024/01/07 06:13:07;;;;;;;49.50;17.67;;;;;;;;;;4994674;28;20037;-59
2024/01/07 06:15:33;;;;;;;47.25;17.75;;;;;;;;;;4999595;28;20034;-59
2024/01/07 06:17:59;;;;;;;47.63;17.90;;;;;;;;;;4999122;28;20034;-59
2024/01/07 06:20:25;;;;;;;52.38;18.85;;;;;;;;;;5017189;28;20045;-58
2024/01/07 06:22:51;;;;;;;44.67;17.23;;;;;;;;;;5002777;28;20417;-58
2024/01/07 06:25:17;;;;;;;51.83;18.52;;;;;;;;;;4998235;28;20042;-59
2024/01/07 06:27:43;;;;;;;45.90;17.13;;;;;;;;;;4998451;28;20054;-58
2024/01/07 06:30:10;;;;;;;44.47;17.42;;;;;;;;;;5000521;28;20042;-58
2024/01/07 06:32:36;;;;;;;42.55;16.73;;;;;;;;;;5000747;28;20041;-58
2024/01/07 06:35:03;;;;;;;44.92;17.90;;;;;;;;;;4997184;28;20046;-58
2024/01/07 06:37:29;;;;;;;47.53;18.10;;;;;;;;;;5001773;28;20065;-58
2024/01/07 06:39:58;;;;;;;41.28;16.23;;;;;;;;;;4996493;28;20061;-59
2024/01/07 06:42:25;;;;;;;46.08;16.85;;;;;;;;;;4998319;28;20035;-57
2024/01/07 06:44:51;;;;;;;52.83;18.23;;;;;;;;;;5001139;28;20042;-58
2024/01/07 06:47:17;;;;;;;46.00;17.45;;;;;;;;;;5004857;28;20058;-58
2024/01/07 06:49:43;;;;;;;68.22;25.73;;;;;;;;;;5002779;28;20041;-58
2024/01/07 06:52:09;;;;;;;72.93;26.27;;;;;;;;;;5004475;28;20498;-58
2024/01/07 06:54:35;;;;;;;68.47;24.52;;;;;;;;;;4996557;28;20068;-58
2024/01/07 06:57:02;;;;;;;56.40;21.83;;;;;;;;;;5002018;28;20509;-58
2024/01/07 06:59:28;;;;;;;54.25;19.88;;;;;;;;;;4992680;28;21084;-57
2024/01/07 07:01:56;;;;;;;57.10;21.05;;;;;;;;;;5000532;28;20046;-59
2024/01/07 07:04:22;;;;;;;49.20;19.70;;;;;;;;;;5001687;28;20742;-58
2024/01/07 07:06:48;;;;;;;43.97;18.38;;;;;;;;;;5002534;28;20057;-58
2024/01/07 07:09:15;;;;;;;53.00;18.98;;;;;;;;;;5002294;28;20045;-57
2024/01/07 07:11:41;;;;;;;57.75;20.13;;;;;;;;;;4996387;28;20041;-58
2024/01/07 07:14:07;;;;;;;55.85;18.38;;;;;;;;;;4997089;28;20054;-58
2024/01/07 07:16:33;;;;;;;50.10;19.73;;;;;;;;;;4998990;28;20048;-57
2024/01/07 07:18:59;;;;;;;53.45;19.20;;;;;;;;;;4994192;28;20034;-58
2024/01/07 07:21:27;;;;;;;50.92;20.58;;;;;;;;;;5003268;28;20057;-58
2024/01/07 07:23:53;;;;;;;46.55;18.10;;;;;;;;;;4996606;28;20065;-58
2024/01/07 07:26:19;;;;;;;50.53;19.45;;;;;;;;;;4998124;28;20042;-58
2024/01/07 07:28:46;;;;;;;58.28;20.70;;;;;;;;;;4998916;28;20042;-58
2024/01/07 07:31:12;;;;;;;55.38;21.10;;;;;;;;;;5002455;28;20602;-58
2024/01/07 07:33:41;;;;;;;55.92;21.00;;;;;;;;;;4997554;28;20042;-58
2024/01/07 07:36:07;;;;;;;60.25;20.77;;;;;;;;;;4998178;28;20057;-57
2024/01/07 07:38:34;;;;;;;55.53;20.17;;;;;;;;;;4996935;28;20046;-57
2024/01/07 07:41:00;;;;;;;57.05;19.60;;;;;;;;;;4996649;28;20040;-57
2024/01/07 07:43:26;;;;;;;54.90;19.90;;;;;;;;;;4997616;28;20057;-57
2024/01/07 07:45:52;;;;;;;50.13;20.25;;;;;;;;;;4998438;28;20449;-57
2024/01/07 07:48:19;;;;;;;56.85;22.35;;;;;;;;;;4998833;28;20054;-57
2024/01/07 07:50:45;;;;;;;57.97;22.15;;;;;;;;;;4999207;28;20045;-56
2024/01/07 07:53:11;;;;;;;56.65;21.55;;;;;;;;;;4998108;28;20414;-55
2024/01/07 07:55:37;;;;;;;64.45;22.05;;;;;;;;;;4993081;28;20045;-57
2024/01/07 07:58:03;;;;;;;58.88;20.65;;;;;;;;;;4994326;28;20031;-56
2024/01/07 08:00:29;;;;;;;56.45;20.63;;;;;;;;;;4994227;28;20068;-57
2024/01/07 08:02:55;;;;;;;52.92;19.33;;;;;;;;;;4997909;28;20052;-57
2024/01/07 08:05:21;;;;;;;54.80;20.90;;;;;;;;;;5000782;28;20041;-57
2024/01/07 08:07:48;;;;;;;59.22;21.20;;;;;;;;;;4999775;28;20050;-57
2024/01/07 08:10:14;;;;;;;57.20;20.17;;;;;;;;;;5003632;28;20046;-56
2024/01/07 08:12:40;;;;;;;59.50;20.33;;;;;;;;;;5001102;28;20045;-57
2024/01/07 08:15:07;;;;;;;52.78;18.83;;;;;;;;;;4998748;28;20041;-57
2024/01/07 08:17:33;;;;;;;50.65;19.33;;;;;;;;;;4998834;28;20034;-57
2024/01/07 08:20:01;;;;;;;52.55;19.90;;;;;;;;;;5002458;28;20521;-57
2024/01/07 08:22:27;;;;;;;51.83;20.75;;;;;;;;;;5000161;28;20692;-59
2024/01/07 08:24:53;;;;;;;55.33;20.75;;;;;;;;;;4997361;28;20057;-57
2024/01/07 08:27:20;;;;;;;50.42;19.67;;;;;;;;;;4996260;28;20049;-56
2024/01/07 08:29:46;;;;;;;49.95;18.58;;;;;;;;;;5000753;28;20038;-56
2024/01/07 08:32:12;;;;;;;48.17;17.20;;;;;;;;;;4999918;28;20038;-56
2024/01/07 08:34:39;;;;;;;45.97;16.58;;;;;;;;;;5004478;28;20026;-56
2024/01/07 08:37:09;;;;;;;44.15;17.30;;;;;;;;;;4989072;28;20050;-57
2024/01/07 08:39:35;;;;;;;38.72;17.25;;;;;;;;;;4996778;28;20052;-57
2024/01/07 08:42:01;;;;;;;41.45;16.13;;;;;;;;;;4996368;28;20042;-54
2024/01/07 08:44:27;;;;;;;35.38;13.98;;;;;;;;;;4991810;28;20038;-57
2024/01/07 08:46:53;;;;;;;41.30;16.95;;;;;;;;;;4991821;28;20057;-57
2024/01/07 08:49:19;;;;;;;41.47;17.42;;;;;;;;;;4995989;28;20049;-56
2024/01/07 08:51:46;;;;;;;42.03;15.90;;;;;;;;;;4999670;28;20569;-57
2024/01/07 08:54:12;;;;;;;37.38;15.38;;;;;;;;;;4995508;28;20425;-57
2024/01/07 08:56:39;;;;;;;38.88;14.27;;;;;;;;;;4998013;28;20037;-57
2024/01/07 08:59:05;;;;;;;39.35;14.60;;;;;;;;;;4996580;28;20057;-58
2024/01/07 09:01:31;;;;;;;36.40;14.48;;;;;;;;;;4999169;28;20045;-56
2024/01/07 09:03:57;;;;;;;39.55;13.95;;;;;;;;;;4995160;28;20054;-57
2024/01/07 09:06:24;;;;;;;39.63;13.98;;;;;;;;;;4994920;28;20053;-57
2024/01/07 09:08:50;;;;;;;40.95;13.70;;;;;;;;;;4998003;28;20053;-55
2024/01/07 09:11:19;;;;;;;36.10;14.68;;;;;;;;;;5001145;28;20042;-56
2024/01/07 09:13:48;;;;;;;40.40;14.48;;;;;;;;;;4999664;28;20147;-57
2024/01/07 09:16:15;;;;;;;34.75;14.32;;;;;;;;;;4999949;28;21108;-56
2024/01/07 09:18:43;;;;;;;39.17;15.38;;;;;;;;;;4997742;28;20403;-57
2024/01/07 09:21:10;;;;;;;48.97;21.95;;;;;;;;;;4998711;28;20057;-56
2024/01/07 09:23:36;;;;;;;55.50;21.58;;;;;;;;;;5004211;28;20041;-54
2024/01/07 09:26:02;;;;;;;37.05;16.00;;;;;;;;;;4999249;28;20050;-56
2024/01/07 09:28:28;;;;;;;38.75;15.00;;;;;;;;;;5000698;28;20062;-56
2024/01/07 09:30:54;;;;;;;39.22;14.68;;;;;;;;;;4996482;28;20104;-56
2024/01/07 09:33:23;;;;;;;32.92;13.27;;;;;;;;;;5001588;28;20050;-55
2024/01/07 09:35:53;;;;;;;33.97;12.52;;;;;;;;;;4997483;28;20494;-57
2024/01/07 09:38:20;;;;;;;43.15;16.10;;;;;;;;;;5004095;28;20048;-56
2024/01/07 09:40:46;;;;;;;35.65;14.50;;;;;;;;;;4998612;28;20033;-56
2024/01/07 09:43:13;;;;;;;34.85;13.75;;;;;;;;;;4998874;28;20030;-51
2024/01/07 09:45:41;;;;;;;37.05;13.82;;;;;;;;;;5002419;28;20037;-56
2024/01/07 09:48:08;;;;;;;35.00;13.50;;;;;;;;;;4999467;28;20057;-53
2024/01/07 09:50:34;;;;;;;37.25;13.25;;;;;;;;;;5005541;28;20045;-56
2024/01/07 09:53:02;;;;;;;36.58;13.65;;;;;;;;;;4998302;28;20049;-56
2024/01/07 09:55:45;;;;;;;35.45;14.70;;;;;;;;;;5003401;28;20641;-56
2024/01/07 09:58:11;;;;;;;32.38;12.43;;;;;;;;;;5004375;28;20413;-55
2024/01/07 10:00:38;;;;;;;33.63;13.18;;;;;;;;;;5004586;28;20402;-55
2024/01/07 10:03:04;;;;;;;38.38;17.90;;;;;;;;;;5008201;28;20050;-58
2024/01/07 10:05:30;;;;;;;37.45;14.45;;;;;;;;;;5001579;28;20031;-54
2024/01/07 10:07:57;;;;;;;32.38;12.93;;;;;;;;;;4996937;28;20507;-55
2024/01/07 10:10:23;;;;;;;43.05;16.52;;;;;;;;;;4998374;28;20037;-55
2024/01/07 10:12:52;;;;;;;36.05;13.93;;;;;;;;;;4999055;28;20045;-54
2024/01/07 10:15:19;;;;;;;33.30;13.05;;;;;;;;;;5000913;28;20397;-55
2024/01/07 10:17:45;;;;;;;34.40;13.25;;;;;;;;;;5001337;28;20046;-56
2024/01/07 10:20:12;;;;;;;28.63;12.10;;;;;;;;;;5003883;28;20046;-54
2024/01/07 10:22:39;;;;;;;27.90;10.40;;;;;;;;;;5002402;28;20049;-55
2024/01/07 10:25:09;;;;;;;26.65;11.63;;;;;;;;;;5004248;28;20044;-56
2024/01/07 10:27:36;;;;;;;28.85;11.88;;;;;;;;;;5006374;28;20034;-54
2024/01/07 10:30:03;;;;;;;27.30;11.82;;;;;;;;;;5008132;28;20058;-55
2024/01/07 10:32:29;;;;;;;28.38;11.25;;;;;;;;;;5006440;28;20046;-55
2024/01/07 10:35:04;;;;;;;29.65;11.20;;;;;;;;;;5002221;28;20041;-55
2024/01/07 10:37:31;;;;;;;26.50;12.43;;;;;;;;;;5002076;28;20045;-54
2024/01/07 10:40:03;;;;;;;35.30;14.07;;;;;;;;;;5001654;28;20034;-54
2024/01/07 10:42:33;;;;;;;30.08;11.38;;;;;;;;;;5002185;28;20034;-54
2024/01/07 10:45:02;;;;;;;27.20;12.25;;;;;;;;;;5003137;28;20057;-57
2024/01/07 10:47:31;;;;;;;27.08;11.15;;;;;;;;;;4994934;28;20401;-55
2024/01/07 10:49:59;;;;;;;27.23;11.13;;;;;;;;;;5003598;28;20038;-57
2024/01/07 10:52:27;;;;;;;28.75;12.00;;;;;;;;;;5005758;28;20052;-55
2024/01/07 10:54:56;;;;;;;29.02;11.48;;;;;;;;;;5005447;28;20066;-56
2024/01/07 10:57:40;;;;;;;25.42;10.80;;;;;;;;;;5006257;28;20386;-56
2024/01/07 11:00:07;;;;;;;25.13;9.93;;;;;;;;;;4997323;28;20046;-55
2024/01/07 11:02:45;;;;;;;25.75;10.63;;;;;;;;;;5003306;28;20041;-56
2024/01/07 11:05:27;;;;;;;25.73;10.88;;;;;;;;;;5004817;28;20042;-57
2024/01/07 11:08:18;;;;;;;26.65;10.77;;;;;;;;;;4998974;28;20700;-56
2024/01/07 11:10:50;;;;;;;23.20;10.00;;;;;;;;;;4999214;28;20053;-55
2024/01/07 11:13:40;;;;;;;26.25;10.10;;;;;;;;;;4998155;28;20053;-53
2024/01/07 11:16:11;;;;;;;26.63;11.25;;;;;;;;;;5002480;28;20045;-56
2024/01/07 11:18:46;;;;;;;25.70;10.68;;;;;;;;;;4994870;28;20031;-55
2024/01/07 11:21:20;;;;;;;27.13;10.65;;;;;;;;;;5002203;28;20051;-54
2024/01/07 11:23:47;;;;;;;26.55;10.27;;;;;;;;;;4999004;28;20053;-56
2024/01/07 11:26:13;;;;;;;23.20;10.35;;;;;;;;;;5003924;28;20414;-57
2024/01/07 11:28:51;;;;;;;26.02;10.15;;;;;;;;;;4998550;28;20042;-56
2024/01/07 11:31:20;;;;;;;29.45;10.90;;;;;;;;;;4998373;28;20038;-56
2024/01/07 11:33:50;;;;;;;29.25;11.57;;;;;;;;;;5000284;28;20033;-57
2024/01/07 11:36:17;;;;;;;31.88;11.82;;;;;;;;;;5001109;28;20054;-55
2024/01/07 11:38:50;;;;;;;29.60;11.10;;;;;;;;;;5001860;28;20049;-55
2024/01/07 11:41:17;;;;;;;27.52;11.68;;;;;;;;;;5002425;28;20041;-55
2024/01/07 11:43:59;;;;;;;26.75;10.95;;;;;;;;;;4998381;28;20042;-57
2024/01/07 11:46:26;;;;;;;26.23;9.95;;;;;;;;;;5008366;28;20493;-59
2024/01/07 11:48:58;;;;;;;30.35;10.38;;;;;;;;;;5001425;28;20425;-57
2024/01/07 11:51:31;;;;;;;26.25;11.90;;;;;;;;;;5002446;28;20493;-59
2024/01/07 11:53:59;;;;;;;29.40;12.00;;;;;;;;;;5005911;28;20077;-56
2024/01/07 11:56:26;;;;;;;29.73;10.60;;;;;;;;;;5001969;28;20047;-52
2024/01/07 11:58:52;;;;;;;24.95;11.20;;;;;;;;;;5001086;28;20050;-56
2024/01/07 12:01:19;;;;;;;23.17;9.65;;;;;;;;;;4993776;28;20046;-56
2024/01/07 12:03:45;;;;;;;22.35;9.75;;;;;;;;;;5003690;28;20050;-56
2024/01/07 12:06:15;;;;;;;25.45;11.57;;;;;;;;;;5003173;28;20042;-56
2024/01/07 12:08:42;;;;;;;;;;;;;;;;;;5001737;28;20030;-57
2024/01/07 12:11:11;;;;;;;24.63;9.90;;;;;;;;;;4997459;28;19913;-52
2024/01/07 12:13:38;;;;;;;24.73;9.88;;;;;;;;;;4996686;28;20049;-56
2024/01/07 12:16:05;;;;;;;27.25;11.77;;;;;;;;;;4995464;28;20418;-56
2024/01/07 12:18:32;;;;;;;31.27;13.18;;;;;;;;;;4997545;28;20037;-53
2024/01/07 12:20:59;;;;;;;30.35;11.63;;;;;;;;;;4993212;28;20474;-56
2024/01/07 12:23:26;;;;;;;28.52;11.60;;;;;;;;;;4995899;28;20045;-53
2024/01/07 12:25:53;;;;;;;23.52;10.30;;;;;;;;;;4995147;28;20049;-55
2024/01/07 12:28:19;;;;;;;24.48;10.75;;;;;;;;;;5000046;28;20064;-56
2024/01/07 12:30:47;;;;;;;23.77;10.60;;;;;;;;;;4995745;28;20401;-57
2024/01/07 12:33:20;;;;;;;29.83;11.73;;;;;;;;;;4997808;28;20421;-54
2024/01/07 12:35:47;;;;;;;24.88;10.02;;;;;;;;;;4997853;28;20061;-55
2024/01/07 12:38:14;;;;;;;23.85;10.32;;;;;;;;;;4994460;28;20037;-56
2024/01/07 12:40:41;;;;;;;23.33;10.70;;;;;;;;;;4982722;28;20046;-55
2024/01/07 12:43:07;;;;;;;22.50;9.68;;;;;;;;;;5001345;28;20045;-56
2024/01/07 12:45:33;;;;;;;25.05;10.00;;;;;;;;;;4987882;28;20529;-56
2024/01/07 12:48:02;;;;;;;20.30;10.23;;;;;;;;;;5000898;28;20068;-55
2024/01/07 12:50:30;;;;;;;27.45;11.18;;;;;;;;;;4999514;28;20038;-55
2024/01/07 12:52:57;;;;;;;21.65;9.73;;;;;;;;;;4997808;28;20034;-55
2024/01/07 12:55:23;;;;;;;27.90;11.30;;;;;;;;;;4998491;28;20041;-56
2024/01/07 12:57:49;;;;;;;25.83;11.10;;;;;;;;;;5005911;28;20042;-56
2024/01/07 13:00:16;;;;;;;24.33;10.75;;;;;;;;;;4994721;28;20042;-57
2024/01/07 13:02:42;;;;;;;24.15;11.00;;;;;;;;;;4998969;28;20493;-56
2024/01/07 13:05:08;;;;;;;22.50;10.82;;;;;;;;;;4998858;28;20042;-57
2024/01/07 13:07:35;;;;;;;24.83;10.77;;;;;;;;;;5000736;28;20421;-54
2024/01/07 13:10:01;;;;;;;27.60;11.07;;;;;;;;;;4994373;28;20510;-56
2024/01/07 13:12:27;;;;;;;22.77;10.82;;;;;;;;;;4995236;28;20034;-56
2024/01/07 13:14:53;;;;;;;21.75;10.25;;;;;;;;;;4992160;28;20042;-52
2024/01/07 13:17:20;;;;;;;24.92;10.82;;;;;;;;;;4992622;28;20035;-55
2024/01/07 13:19:46;;;;;;;23.52;9.98;;;;;;;;;;4996980;28;20041;-54
2024/01/07 13:22:13;;;;;;;21.30;9.45;;;;;;;;;;4996394;28;20049;-54
2024/01/07 13:24:40;;;;;;;24.10;10.40;;;;;;;;;;5007060;28;20046;-58
2024/01/07 13:27:08;;;;;;;22.23;10.88;;;;;;;;;;5008281;28;20047;-56
2024/01/07 13:29:35;;;;;;;23.40;10.43;;;;;;;;;;5005869;28;20046;-56
2024/01/07 13:32:01;;;;;;;21.17;10.20;;;;;;;;;;4999703;28;20057;-56
2024/01/07 13:34:27;;;;;;;22.85;10.68;;;;;;;;;;5005815;28;20026;-56
2024/01/07 13:36:54;;;;;;;22.67;10.68;;;;;;;;;;5001678;28;20050;-56
2024/01/07 13:39:22;;;;;;;28.60;11.55;;;;;;;;;;5008095;28;20061;-58
2024/01/07 13:41:49;;;;;;;49.03;14.45;;;;;;;;;;5001537;28;20050;-58
2024/01/07 13:44:18;;;;;;;25.27;11.07;;;;;;;;;;5005859;28;20506;-59
2024/01/07 13:46:47;;;;;;;34.72;12.48;;;;;;;;;;5004645;28;20038;-57
2024/01/07 13:49:14;;;;;;;40.47;13.32;;;;;;;;;;5003802;28;20046;-58
2024/01/07 13:51:44;;;;;;;24.42;11.05;;;;;;;;;;5002279;28;20501;-57
2024/01/07 13:54:14;;;;;;;35.17;13.07;;;;;;;;;;5002185;28;20042;-55
2024/01/07 13:56:44;;;;;;;27.90;11.45;;;;;;;;;;4998589;28;20041;-55
2024/01/07 13:59:11;;;;;;;32.45;12.68;;;;;;;;;;5001718;28;20058;-57
2024/01/07 14:01:37;;;;;;;30.73;12.05;;;;;;;;;;5008398;28;20521;-56
2024/01/07 14:04:04;;;;;;;26.80;12.15;;;;;;;;;;5002356;28;20453;-56
2024/01/07 14:06:30;;;;;;;28.70;12.30;;;;;;;;;;5004047;28;20034;-56
2024/01/07 14:08:57;;;;;;;26.63;12.07;;;;;;;;;;5005354;28;20054;-56
2024/01/07 14:11:24;;;;;;;24.45;12.63;;;;;;;;;;4999413;28;20056;-58
2024/01/07 14:13:50;;;;;;;22.63;11.63;;;;;;;;;;5001012;28;20047;-57
2024/01/07 14:16:16;;;;;;;28.50;12.15;;;;;;;;;;4998710;28;20038;-57
2024/01/07 14:18:42;;;;;;;25.70;11.88;;;;;;;;;;5016011;28;20042;-60